Time;durP1;ratioP1;P1;durP2;ratioP2;P2;SDS_P1;SDS_P2;PMS_P1;PMS_P2;Temp;Humidity;BMP_temperature;BMP_pressure;BME280_temperature;BME280_humidity;BME280_pressure;Samples;Min_cycle;Max_cycle;Signal;HPM_P1;HPM_P2
2022/11/25 00:01:16;;;;;;;15.70;4.07;;;9.50;99.90;;;;;;5056957;28;20214;-82
2022/11/25 00:03:44;;;;;;;18.23;4.63;;;9.50;99.90;;;;;;5056605;28;20496;-83
2022/11/25 00:06:13;;;;;;;13.20;4.13;;;9.50;99.90;;;;;;5056878;28;20544;-86
2022/11/25 00:08:40;;;;;;;16.33;5.60;;;9.50;99.90;;;;;;5056821;28;20218;-85
2022/11/25 00:11:09;;;;;;;15.43;4.70;;;9.50;99.90;;;;;;5056871;28;20205;-85
2022/11/25 00:13:37;;;;;;;15.87;4.60;;;9.50;99.90;;;;;;5055445;28;20202;-86
2022/11/25 00:16:04;;;;;;;15.67;4.23;;;9.50;99.90;;;;;;5057060;28;20194;-85
2022/11/25 00:18:31;;;;;;;15.73;4.27;;;9.50;99.90;;;;;;5056421;28;20200;-83
2022/11/25 00:20:59;;;;;;;12.97;4.57;;;9.50;99.90;;;;;;5056091;28;20319;-83
2022/11/25 00:23:25;;;;;;;15.67;4.53;;;9.50;99.90;;;;;;5056606;28;20656;-83
2022/11/25 00:25:52;;;;;;;18.87;4.80;;;9.50;99.90;;;;;;5055596;28;20215;-83
2022/11/25 00:28:21;;;;;;;14.80;4.73;;;9.50;99.90;;;;;;5056722;28;20225;-84
2022/11/25 00:30:47;;;;;;;16.90;5.20;;;9.50;99.90;;;;;;5055425;28;20297;-84
2022/11/25 00:33:15;;;;;;;11.57;4.53;;;9.50;99.90;;;;;;5056212;28;20208;-83
2022/11/25 00:35:42;;;;;;;20.97;5.47;;;9.50;99.90;;;;;;5054864;28;20202;-82
2022/11/25 00:38:08;;;;;;;17.73;5.07;;;9.50;99.90;;;;;;5054705;28;20201;-82
2022/11/25 00:40:35;;;;;;;14.00;4.90;;;9.50;99.90;;;;;;5054761;28;20304;-84
2022/11/25 00:45:47;;;;;;;12.90;4.30;;;9.50;99.90;;;;;;5055647;28;20359;-83
2022/11/25 00:48:14;;;;;;;12.40;4.33;;;9.50;99.90;;;;;;5055908;28;20226;-82
2022/11/25 00:50:42;;;;;;;12.17;5.20;;;9.50;99.90;;;;;;5055616;28;20212;-84
2022/11/25 00:53:09;;;;;;;13.10;5.40;;;9.50;99.90;;;;;;5056063;28;20332;-84
2022/11/25 00:58:17;;;;;;;9.50;3.83;;;9.50;99.90;;;;;;5055873;28;20578;-84
2022/11/25 01:00:44;;;;;;;14.07;4.40;;;9.50;99.90;;;;;;5075687;28;20252;-84
2022/11/25 01:03:12;;;;;;;13.50;3.93;;;9.50;99.90;;;;;;5062797;28;20665;-84
2022/11/25 01:05:39;;;;;;;11.87;3.60;;;9.50;99.90;;;;;;5056279;28;20205;-86
2022/11/25 01:08:06;;;;;;;8.93;3.03;;;9.50;99.90;;;;;;5056150;28;20226;-84
2022/11/25 01:10:33;;;;;;;6.00;2.60;;;9.50;99.90;;;;;;5055946;28;20202;-84
2022/11/25 01:12:59;;;;;;;7.07;1.97;;;9.40;99.90;;;;;;5056023;28;20483;-85
2022/11/25 01:15:26;;;;;;;5.13;1.93;;;9.40;99.90;;;;;;5055331;28;20284;-83
2022/11/25 01:17:53;;;;;;;4.80;1.93;;;9.40;99.90;;;;;;5067037;28;20209;-84
2022/11/25 01:20:21;;;;;;;5.00;1.20;;;9.30;99.90;;;;;;5075213;28;20511;-84
2022/11/25 01:22:48;;;;;;;3.80;1.00;;;9.30;99.90;;;;;;5075422;28;20284;-84
2022/11/25 01:25:15;;;;;;;3.43;1.33;;;9.30;99.90;;;;;;5073638;28;20207;-84
2022/11/25 01:27:42;;;;;;;4.40;1.30;;;9.20;99.90;;;;;;5054990;28;20202;-83
2022/11/25 01:30:10;;;;;;;3.63;1.10;;;9.20;99.90;;;;;;5054822;28;20228;-85
2022/11/25 01:32:37;;;;;;;4.23;1.20;;;9.20;99.90;;;;;;5055475;28;20277;-84
2022/11/25 01:35:04;;;;;;;2.90;0.80;;;9.20;99.90;;;;;;5055139;28;20206;-84
2022/11/25 01:37:33;;;;;;;4.87;1.90;;;9.10;99.90;;;;;;5055137;28;20289;-85
2022/11/25 01:39:59;;;;;;;1.77;1.00;;;9.10;99.90;;;;;;5055130;28;20289;-83
2022/11/25 01:42:30;;;;;;;5.80;1.40;;;9.10;99.90;;;;;;5054397;28;20206;-82
2022/11/25 01:45:35;;;;;;;4.63;1.63;;;9.10;99.90;;;;;;5054330;28;20310;-83
2022/11/25 01:48:10;;;;;;;5.00;1.50;;;9.10;99.90;;;;;;4993436;28;20230;-81
2022/11/25 01:50:38;;;;;;;5.37;1.60;;;9.10;99.90;;;;;;4992938;28;20195;-82
2022/11/25 01:53:09;;;;;;;4.77;1.30;;;9.10;99.90;;;;;;5026428;28;20598;-83
2022/11/25 01:55:38;;;;;;;3.10;1.40;;;9.10;99.90;;;;;;5054774;28;20232;-83
2022/11/25 01:58:07;;;;;;;8.03;1.80;;;9.10;99.90;;;;;;5054394;28;20664;-83
2022/11/25 02:00:36;;;;;;;5.10;1.90;;;9.10;99.90;;;;;;5054704;28;20204;-83
2022/11/25 02:03:04;;;;;;;6.10;2.07;;;9.10;99.90;;;;;;5054359;28;20212;-82
2022/11/25 02:05:38;;;;;;;5.50;2.53;;;9.10;99.90;;;;;;5054610;28;20202;-82
2022/11/25 02:08:08;;;;;;;8.17;2.93;;;9.20;99.90;;;;;;5054293;28;20260;-81
2022/11/25 02:10:36;;;;;;;7.57;3.23;;;9.20;99.90;;;;;;5065812;28;20209;-82
2022/11/25 02:13:03;;;;;;;8.37;4.50;;;9.20;99.90;;;;;;5073973;28;20457;-83
2022/11/25 02:15:33;;;;;;;9.33;4.53;;;9.20;99.90;;;;;;5073664;28;20207;-81
2022/11/25 02:18:00;;;;;;;9.37;5.57;;;9.20;99.90;;;;;;5073590;28;20205;-82
2022/11/25 02:20:27;;;;;;;12.63;6.83;;;9.20;99.90;;;;;;5057931;28;20198;-82
2022/11/25 02:23:00;;;;;;;14.90;6.57;;;9.30;99.90;;;;;;5073533;28;20216;-83
2022/11/25 02:25:30;;;;;;;11.23;6.37;;;9.30;99.90;;;;;;5075437;28;20194;-83
2022/11/25 02:28:01;;;;;;;18.23;7.63;;;9.30;99.90;;;;;;5079359;28;20200;-83
2022/11/25 02:30:28;;;;;;;12.63;7.17;;;9.30;99.90;;;;;;5059854;28;20205;-83
2022/11/25 02:32:55;;;;;;;15.43;7.63;;;9.40;99.90;;;;;;5056802;28;20220;-83
2022/11/25 02:35:33;;;;;;;15.13;7.67;;;9.40;99.90;;;;;;5054205;28;20198;-84
2022/11/25 02:38:05;;;;;;;13.93;7.50;;;9.30;99.90;;;;;;5053803;28;20629;-83
2022/11/25 02:40:37;;;;;;;15.83;8.83;;;9.30;99.90;;;;;;5054147;28;20190;-84
2022/11/25 02:43:04;;;;;;;16.10;7.87;;;9.30;99.90;;;;;;5053857;28;20195;-83
2022/11/25 02:45:45;;;;;;;21.73;8.30;;;9.40;99.90;;;;;;5060408;28;20237;-83
2022/11/25 02:48:11;;;;;;;25.60;9.20;;;9.40;99.90;;;;;;5074009;28;20224;-83
2022/11/25 02:50:38;;;;;;;15.23;8.90;;;9.40;99.90;;;;;;5073665;28;20204;-83
2022/11/25 02:53:05;;;;;;;17.53;8.67;;;9.40;99.90;;;;;;5068910;28;20558;-83
2022/11/25 02:55:34;;;;;;;17.03;8.90;;;9.50;99.90;;;;;;5054310;28;20297;-84
2022/11/25 02:58:01;;;;;;;25.73;8.93;;;9.50;99.90;;;;;;5054892;28;20211;-85
2022/11/25 03:00:28;;;;;;;17.20;8.07;;;9.50;99.90;;;;;;5058450;28;20280;-84
2022/11/25 03:02:55;;;;;;;13.30;6.17;;;9.50;99.90;;;;;;5058099;28;20198;-85
2022/11/25 03:05:22;;;;;;;17.23;6.53;;;9.50;99.90;;;;;;5058270;28;20521;-83
2022/11/25 03:07:49;;;;;;;13.43;5.40;;;9.50;99.90;;;;;;5057923;28;20206;-84
2022/11/25 03:10:16;;;;;;;14.33;5.73;;;9.60;99.90;;;;;;5058164;28;20274;-84
2022/11/25 03:12:44;;;;;;;13.53;6.30;;;9.60;99.90;;;;;;5061588;28;20202;-83
2022/11/25 03:15:12;;;;;;;15.17;6.10;;;9.60;99.90;;;;;;5097647;28;20204;-83
2022/11/25 03:17:39;;;;;;;16.33;7.17;;;9.50;99.90;;;;;;5097998;28;20197;-83
2022/11/25 03:20:08;;;;;;;17.30;7.20;;;9.50;99.90;;;;;;5081757;28;20201;-83
2022/11/25 03:22:35;;;;;;;21.90;7.27;;;9.50;99.90;;;;;;5077415;28;20201;-81
2022/11/25 03:25:02;;;;;;;17.07;7.70;;;9.50;99.90;;;;;;5073085;28;20289;-83
2022/11/25 03:27:29;;;;;;;20.50;8.00;;;9.50;99.90;;;;;;5056805;28;20202;-82
2022/11/25 03:29:57;;;;;;;17.90;8.60;;;9.50;99.90;;;;;;5068412;28;20227;-82
2022/11/25 03:32:24;;;;;;;17.43;7.63;;;9.50;99.90;;;;;;5077119;28;20201;-83
2022/11/25 03:34:51;;;;;;;14.07;7.17;;;9.40;99.90;;;;;;5064725;28;20212;-84
2022/11/25 03:37:18;;;;;;;18.63;8.40;;;9.40;99.90;;;;;;5056994;28;20237;-83
2022/11/25 03:39:44;;;;;;;16.40;7.30;;;9.40;99.90;;;;;;5057156;28;20194;-83
2022/11/25 03:42:11;;;;;;;14.40;7.23;;;9.40;99.90;;;;;;5057003;28;20213;-83
2022/11/25 03:44:38;;;;;;;17.07;7.70;;;9.40;99.90;;;;;;5056417;28;20209;-83
2022/11/25 03:47:07;;;;;;;19.60;7.37;;;9.40;99.90;;;;;;5057124;28;20230;-82
2022/11/25 03:49:33;;;;;;;16.40;7.67;;;9.40;99.90;;;;;;5056349;28;20232;-83
2022/11/25 03:52:00;;;;;;;15.13;7.70;;;9.40;99.90;;;;;;5056950;28;20193;-82
2022/11/25 03:54:28;;;;;;;14.40;6.60;;;9.40;99.90;;;;;;5056575;28;20683;-82
2022/11/25 03:56:54;;;;;;;16.73;7.10;;;9.40;99.90;;;;;;5061643;28;20609;-83
2022/11/25 03:59:21;;;;;;;18.57;8.20;;;9.40;99.90;;;;;;5076857;28;20197;-83
2022/11/25 04:01:48;;;;;;;17.93;8.50;;;9.40;99.90;;;;;;5065677;28;20214;-83
2022/11/25 04:04:16;;;;;;;18.13;7.00;;;9.40;99.90;;;;;;5056438;28;20202;-83
2022/11/25 04:06:43;;;;;;;16.00;7.27;;;9.50;99.90;;;;;;5056405;28;20574;-84
2022/11/25 04:09:11;;;;;;;14.47;7.93;;;9.40;99.90;;;;;;5055694;28;20225;-83
2022/11/25 04:14:23;;;;;;;12.90;6.87;;;9.50;99.90;;;;;;5055488;28;20186;-82
2022/11/25 04:16:50;;;;;;;21.40;7.73;;;9.40;99.90;;;;;;5056011;28;20208;-83
2022/11/25 04:19:18;;;;;;;12.70;6.73;;;9.40;99.90;;;;;;5056848;28;20194;-82
2022/11/25 04:21:45;;;;;;;16.33;6.67;;;9.40;99.90;;;;;;5056074;28;20198;-82
2022/11/25 04:24:12;;;;;;;20.13;8.17;;;9.50;99.90;;;;;;5056171;28;20594;-83
2022/11/25 04:26:39;;;;;;;14.37;6.07;;;9.50;99.90;;;;;;5056080;28;20209;-82
2022/11/25 04:29:06;;;;;;;19.90;6.70;;;9.50;99.90;;;;;;5056220;28;20229;-81
2022/11/25 04:31:33;;;;;;;14.47;6.63;;;9.50;99.90;;;;;;5056398;28;20551;-83
2022/11/25 04:34:00;;;;;;;24.23;8.03;;;9.40;99.90;;;;;;5056908;28;20289;-83
2022/11/25 04:36:28;;;;;;;17.10;7.60;;;9.40;99.90;;;;;;5055986;28;20197;-83
2022/11/25 04:38:55;;;;;;;13.20;7.23;;;9.40;99.90;;;;;;5055985;28;20489;-82
2022/11/25 04:41:22;;;;;;;16.60;8.50;;;9.40;99.90;;;;;;5056061;28;20285;-82
2022/11/25 04:43:49;;;;;;;16.03;7.57;;;9.40;99.90;;;;;;5055655;28;20202;-82
2022/11/25 04:46:19;;;;;;;16.63;8.03;;;9.40;99.90;;;;;;5060399;28;20556;-81
2022/11/25 04:48:46;;;;;;;21.30;7.73;;;9.40;99.90;;;;;;5075595;28;20224;-82
2022/11/25 04:51:13;;;;;;;15.47;8.00;;;9.30;99.90;;;;;;5068411;28;20251;-82
2022/11/25 04:53:41;;;;;;;17.27;7.10;;;9.30;99.90;;;;;;5055534;28;20198;-83
2022/11/25 04:56:09;;;;;;;17.57;7.37;;;9.30;99.90;;;;;;5055613;28;20451;-82
2022/11/25 05:01:19;;;;;;;11.83;5.40;;;9.20;99.90;;;;;;5055166;28;20189;-83
2022/11/25 05:03:49;;;;;;;14.03;5.87;;;9.20;99.90;;;;;;5055605;28;20194;-82
2022/11/25 05:06:16;;;;;;;9.53;4.70;;;9.20;99.90;;;;;;5055099;28;20202;-83
2022/11/25 05:08:44;;;;;;;11.80;4.80;;;9.20;99.90;;;;;;5055394;28;20770;-82
2022/11/25 05:11:11;;;;;;;8.13;4.40;;;9.10;99.90;;;;;;5053949;28;20281;-83
2022/11/25 05:13:37;;;;;;;8.97;4.07;;;9.10;99.90;;;;;;5054224;28;20616;-83
2022/11/25 05:16:05;;;;;;;10.50;4.40;;;9.10;99.90;;;;;;5054814;28;20209;-83
2022/11/25 05:18:32;;;;;;;11.83;5.40;;;9.10;99.90;;;;;;5054250;28;20209;-82
2022/11/25 05:21:01;;;;;;;8.30;4.83;;;9.00;99.90;;;;;;5053554;28;20194;-83
2022/11/25 05:23:28;;;;;;;12.00;5.40;;;9.00;99.90;;;;;;5055166;28;20217;-81
2022/11/25 05:26:00;;;;;;;10.83;5.10;;;8.90;99.90;;;;;;5054725;28;20202;-83
2022/11/25 05:28:27;;;;;;;7.87;4.43;;;8.90;99.90;;;;;;5055206;28;20217;-81
2022/11/25 05:30:54;;;;;;;12.83;4.00;;;8.90;99.90;;;;;;5059793;28;20222;-82
2022/11/25 05:33:21;;;;;;;7.97;3.83;;;8.90;99.90;;;;;;5074736;28;20197;-83
2022/11/25 05:35:54;;;;;;;9.73;3.97;;;8.90;99.90;;;;;;5074590;28;20208;-83
2022/11/25 05:38:21;;;;;;;8.27;3.97;;;8.80;99.90;;;;;;5074513;28;20197;-82
2022/11/25 05:40:48;;;;;;;9.47;3.90;;;8.80;99.90;;;;;;5074576;28;20198;-82
2022/11/25 05:43:17;;;;;;;12.83;4.00;;;8.80;99.90;;;;;;5074593;28;20288;-83
2022/11/25 05:45:44;;;;;;;9.33;3.97;;;8.90;99.90;;;;;;5074771;28;20233;-82
2022/11/25 05:48:11;;;;;;;11.00;3.63;;;8.90;99.90;;;;;;5055085;28;20225;-83
2022/11/25 05:50:38;;;;;;;6.13;3.63;;;8.80;99.90;;;;;;5054697;28;20773;-83
2022/11/25 05:53:05;;;;;;;9.33;3.93;;;8.80;99.90;;;;;;5054735;28;20201;-83
2022/11/25 05:55:31;;;;;;;8.20;3.67;;;8.80;99.90;;;;;;5054327;28;20759;-83
2022/11/25 05:57:58;;;;;;;11.00;4.10;;;8.90;99.90;;;;;;5054187;28;20212;-83
2022/11/25 06:00:27;;;;;;;10.23;4.33;;;8.80;99.90;;;;;;5055102;28;20315;-83
2022/11/25 06:02:54;;;;;;;6.80;3.37;;;8.80;99.90;;;;;;5054212;28;20201;-83
2022/11/25 06:05:21;;;;;;;10.50;4.10;;;8.70;99.90;;;;;;5054068;28;20202;-83
2022/11/25 06:07:48;;;;;;;8.73;4.63;;;8.70;99.90;;;;;;5054643;28;20340;-83
2022/11/25 06:10:15;;;;;;;14.20;4.73;;;8.80;99.90;;;;;;5067374;28;20672;-83
2022/11/25 06:12:42;;;;;;;10.07;4.43;;;8.80;99.90;;;;;;5074402;28;20197;-82
2022/11/25 06:15:10;;;;;;;12.90;4.80;;;8.70;99.90;;;;;;5073668;28;20197;-81
2022/11/25 06:17:38;;;;;;;7.90;4.17;;;8.70;99.90;;;;;;5073388;28;20205;-82
2022/11/25 06:20:07;;;;;;;7.53;4.03;;;8.70;99.90;;;;;;5074081;28;20197;-83
2022/11/25 06:22:34;;;;;;;11.57;4.30;;;8.60;99.90;;;;;;5073823;28;20202;-83
2022/11/25 06:25:00;;;;;;;15.40;5.23;;;8.60;99.90;;;;;;5056316;28;20289;-82
2022/11/25 06:27:27;;;;;;;9.47;4.27;;;8.60;99.90;;;;;;5054088;28;20193;-83
2022/11/25 06:29:54;;;;;;;13.43;4.73;;;8.50;99.90;;;;;;5061149;28;20637;-83
2022/11/25 06:32:21;;;;;;;13.00;4.27;;;8.50;99.90;;;;;;5073188;28;20201;-82
2022/11/25 06:34:50;;;;;;;9.47;3.73;;;8.50;99.90;;;;;;5053742;28;20212;-83
2022/11/25 06:37:16;;;;;;;10.57;3.70;;;8.50;99.90;;;;;;5053520;28;20323;-83
2022/11/25 06:39:43;;;;;;;12.27;4.27;;;8.50;99.90;;;;;;5067626;28;20489;-82
2022/11/25 06:42:11;;;;;;;14.37;3.93;;;8.50;99.90;;;;;;5059434;28;20201;-81
2022/11/25 06:44:38;;;;;;;8.30;3.37;;;8.50;99.90;;;;;;5052739;28;20209;-82
2022/11/25 06:47:05;;;;;;;12.17;4.60;;;8.40;99.90;;;;;;5053575;28;20206;-82
2022/11/25 06:49:32;;;;;;;7.63;3.87;;;8.40;99.90;;;;;;5053608;28;20245;-81
2022/11/25 06:52:00;;;;;;;10.13;4.50;;;8.40;99.90;;;;;;5053588;28;20786;-82
2022/11/25 06:54:27;;;;;;;9.63;3.83;;;8.40;99.90;;;;;;5053723;28;20209;-83
2022/11/25 06:56:53;;;;;;;9.23;4.13;;;8.40;99.90;;;;;;5053554;28;20197;-83
2022/11/25 06:59:21;;;;;;;7.03;3.50;;;8.30;99.90;;;;;;5053412;28;20201;-82
2022/11/25 07:01:48;;;;;;;9.27;3.70;;;8.30;99.90;;;;;;5052918;28;20206;-83
2022/11/25 07:04:15;;;;;;;9.23;4.03;;;8.30;99.90;;;;;;5053632;28;20204;-83
2022/11/25 07:06:42;;;;;;;7.93;4.07;;;8.30;99.90;;;;;;5053224;28;20206;-83
2022/11/25 07:09:10;;;;;;;12.60;4.37;;;8.30;99.90;;;;;;5053650;28;20201;-80
2022/11/25 07:11:40;;;;;;;11.97;4.17;;;8.30;99.90;;;;;;5053301;28;20230;-82
2022/11/25 07:14:10;;;;;;;8.00;3.47;;;8.30;99.90;;;;;;5053549;28;20206;-82
2022/11/25 07:16:38;;;;;;;8.67;3.33;;;8.30;99.90;;;;;;5058566;28;20243;-83
2022/11/25 07:19:05;;;;;;;11.23;3.43;;;8.20;99.90;;;;;;5073316;28;20204;-81
2022/11/25 07:21:33;;;;;;;4.83;2.83;;;8.20;99.90;;;;;;5073331;28;20273;-82
2022/11/25 07:24:03;;;;;;;6.70;3.40;;;8.20;99.90;;;;;;5073093;28;20269;-83
2022/11/25 07:26:34;;;;;;;7.10;2.70;;;8.20;99.90;;;;;;5072972;28;20228;-81
2022/11/25 07:29:03;;;;;;;12.07;3.00;;;8.20;99.90;;;;;;5067181;28;20206;-82
2022/11/25 07:31:32;;;;;;;10.77;3.47;;;8.20;99.90;;;;;;5053238;28;20237;-82
2022/11/25 07:34:01;;;;;;;6.90;2.43;;;8.20;99.90;;;;;;5052907;28;20202;-81
2022/11/25 07:36:29;;;;;;;9.90;3.37;;;8.20;99.90;;;;;;5053116;28;20205;-83
2022/11/25 07:38:58;;;;;;;11.03;3.70;;;8.20;99.90;;;;;;5067035;28;20628;-83
2022/11/25 07:41:26;;;;;;;5.23;2.17;;;8.20;99.90;;;;;;5071833;28;20255;-82
2022/11/25 07:43:57;;;;;;;9.57;2.80;;;8.20;99.90;;;;;;5053410;28;20208;-82
2022/11/25 07:46:25;;;;;;;7.87;2.87;;;8.20;99.90;;;;;;5056452;28;20248;-83
2022/11/25 07:48:53;;;;;;;9.77;2.47;;;8.20;99.90;;;;;;5056416;28;20344;-83
2022/11/25 07:51:22;;;;;;;13.73;3.57;;;8.30;99.90;;;;;;5056657;28;20229;-83
2022/11/25 07:53:50;;;;;;;12.10;2.67;;;8.30;99.90;;;;;;5056688;28;20202;-83
2022/11/25 07:56:18;;;;;;;10.80;2.47;;;8.40;99.90;;;;;;5056379;28;20198;-83
2022/11/25 07:58:46;;;;;;;12.23;2.80;;;8.40;99.90;;;;;;5080184;28;20208;-83
2022/11/25 08:01:15;;;;;;;11.70;2.53;;;8.60;99.90;;;;;;5078364;28;20207;-80
2022/11/25 08:03:43;;;;;;;14.73;3.20;;;8.60;99.90;;;;;;5054602;28;20594;-84
2022/11/25 08:06:13;;;;;;;10.77;2.43;;;8.80;99.90;;;;;;5068877;28;20201;-82
2022/11/25 08:08:41;;;;;;;7.63;2.27;;;8.80;99.90;;;;;;5057158;28;20363;-83
2022/11/25 08:11:09;;;;;;;12.40;2.30;;;8.90;99.90;;;;;;5061534;28;20225;-82
2022/11/25 08:13:36;;;;;;;8.47;2.13;;;9.10;99.90;;;;;;5059639;28;20541;-81
2022/11/25 08:16:03;;;;;;;15.93;2.80;;;9.10;99.90;;;;;;5075723;28;20280;-83
2022/11/25 08:18:32;;;;;;;11.90;2.60;;;9.20;99.90;;;;;;5087270;28;20201;-82
2022/11/25 08:21:00;;;;;;;13.67;2.83;;;9.20;99.90;;;;;;5075679;28;20205;-82
2022/11/25 08:23:27;;;;;;;14.50;2.90;;;9.20;99.90;;;;;;5075889;28;20201;-82
2022/11/25 08:25:54;;;;;;;13.77;2.97;;;9.30;99.90;;;;;;5072849;28;20209;-82
2022/11/25 08:28:21;;;;;;;12.40;3.00;;;9.30;99.90;;;;;;5073971;28;20212;-82
2022/11/25 08:30:48;;;;;;;12.53;3.00;;;9.40;99.90;;;;;;5074950;28;20218;-83
2022/11/25 08:33:15;;;;;;;20.17;4.37;;;9.40;99.90;;;;;;5074214;28;20619;-83
2022/11/25 08:35:43;;;;;;;10.57;3.10;;;9.50;99.90;;;;;;5072476;28;20238;-85
2022/11/25 08:38:12;;;;;;;13.07;2.90;;;9.50;99.90;;;;;;5071048;28;20628;-84
2022/11/25 08:40:45;;;;;;;18.13;3.30;;;9.60;99.90;;;;;;5067388;28;20231;-83
2022/11/25 08:43:12;;;;;;;17.20;3.07;;;9.70;99.90;;;;;;5067110;28;20197;-81
2022/11/25 08:45:42;;;;;;;14.00;3.20;;;9.80;99.90;;;;;;5055598;28;20230;-84
2022/11/25 08:48:09;;;;;;;20.17;3.40;;;9.90;99.90;;;;;;5055765;28;20225;-82
2022/11/25 08:50:36;;;;;;;23.87;4.13;;;9.90;99.90;;;;;;5055482;28;20226;-82
2022/11/25 08:53:04;;;;;;;26.30;4.57;;;10.00;99.90;;;;;;5056272;28;20624;-83
2022/11/25 08:55:31;;;;;;;16.93;3.07;;;10.00;99.90;;;;;;5055248;28;20198;-83
2022/11/25 08:57:58;;;;;;;14.73;3.63;;;10.00;99.90;;;;;;5054851;28;20194;-82
2022/11/25 09:00:25;;;;;;;15.53;3.70;;;10.10;99.90;;;;;;5055596;28;20194;-84
2022/11/25 09:02:52;;;;;;;21.77;4.57;;;10.10;99.90;;;;;;5059224;28;20229;-83
2022/11/25 09:05:18;;;;;;;26.83;4.10;;;10.10;99.90;;;;;;5075036;28;20197;-82
2022/11/25 09:07:45;;;;;;;25.13;5.50;;;10.10;99.90;;;;;;5074325;28;20204;-85
2022/11/25 09:10:16;;;;;;;21.63;4.30;;;10.10;99.90;;;;;;5055301;28;20317;-81
2022/11/25 09:12:43;;;;;;;18.30;4.37;;;10.20;99.90;;;;;;5054451;28;20205;-84
2022/11/25 09:15:11;;;;;;;19.97;4.37;;;10.20;99.90;;;;;;5054662;28;20657;-83
2022/11/25 09:17:38;;;;;;;23.60;4.37;;;10.30;99.90;;;;;;5055292;28;20323;-83
2022/11/25 09:20:06;;;;;;;21.53;4.60;;;10.30;99.90;;;;;;5054641;28;20202;-83
2022/11/25 09:22:33;;;;;;;20.03;4.17;;;10.30;99.90;;;;;;5054744;28;20648;-82
2022/11/25 09:25:00;;;;;;;29.50;6.57;;;10.30;99.90;;;;;;5055084;28;20208;-84
2022/11/25 09:27:28;;;;;;;24.70;5.10;;;10.40;99.90;;;;;;5073546;28;20219;-82
2022/11/25 09:29:55;;;;;;;27.63;5.10;;;10.40;99.90;;;;;;5074813;28;20594;-83
2022/11/25 09:32:22;;;;;;;21.53;5.63;;;10.40;99.90;;;;;;5074137;28;20301;-84
2022/11/25 09:34:49;;;;;;;25.27;6.17;;;10.40;99.90;;;;;;5054434;28;20198;-82
2022/11/25 09:37:16;;;;;;;28.63;6.30;;;10.50;99.90;;;;;;5059217;28;20215;-84
2022/11/25 09:39:43;;;;;;;22.70;4.97;;;10.50;99.90;;;;;;5074509;28;20316;-82
2022/11/25 09:48:29;;;;;;;31.17;5.47;;;10.70;99.90;;;;;;5055215;28;20509;-84
2022/11/25 09:51:05;;;;;;;20.50;5.67;;;10.90;99.90;;;;;;5054764;28;20224;-82
2022/11/25 09:53:42;;;;;;;22.00;5.00;;;11.00;99.90;;;;;;5055515;28;20481;-84
2022/11/25 09:56:18;;;;;;;22.33;5.27;;;11.10;99.90;;;;;;5055045;28;20201;-83
2022/11/25 09:58:50;;;;;;;24.33;4.77;;;11.10;99.90;;;;;;5054730;28;20479;-83
2022/11/25 10:01:23;;;;;;;27.50;4.67;;;11.00;99.90;;;;;;5054972;28;20336;-85
2022/11/25 10:03:56;;;;;;;23.90;5.97;;;11.00;99.90;;;;;;5054669;28;20202;-83
2022/11/25 10:06:24;;;;;;;24.10;5.03;;;11.00;99.90;;;;;;5054801;28;20229;-86
2022/11/25 10:08:54;;;;;;;21.00;5.03;;;10.90;99.90;;;;;;5053865;28;20792;-85
2022/11/25 10:11:28;;;;;;;25.07;4.73;;;10.90;99.90;;;;;;5054440;28;20651;-83
2022/11/25 10:13:59;;;;;;;21.77;4.37;;;10.90;99.90;;;;;;5054824;28;20192;-82
2022/11/25 10:16:35;;;;;;;19.47;4.70;;;11.00;99.90;;;;;;5054051;28;20217;-84
2022/11/25 10:19:08;;;;;;;19.70;4.83;;;11.00;99.90;;;;;;5054719;28;20197;-83
2022/11/25 10:21:35;;;;;;;30.70;4.50;;;11.00;99.90;;;;;;5053630;28;20206;-83
2022/11/25 10:24:03;;;;;;;26.33;5.27;;;11.10;99.90;;;;;;5053395;28;20198;-83
2022/11/25 10:26:41;;;;;;;20.60;4.67;;;11.10;99.90;;;;;;5053676;28;20216;-82
2022/11/25 10:29:23;;;;;;;23.87;5.77;;;11.10;99.90;;;;;;5052913;28;20210;-83
2022/11/25 10:31:55;;;;;;;25.00;5.70;;;11.10;99.90;;;;;;5053974;28;20278;-83
2022/11/25 10:34:30;;;;;;;25.60;5.30;;;11.10;99.90;;;;;;5090371;28;20254;-81
2022/11/25 10:36:58;;;;;;;23.80;3.87;;;11.10;99.90;;;;;;5073493;28;20205;-81
2022/11/25 10:39:30;;;;;;;21.00;5.13;;;11.10;99.90;;;;;;5053285;28;20220;-83
2022/11/25 10:42:02;;;;;;;21.17;5.13;;;11.20;99.90;;;;;;5052463;28;20215;-82
2022/11/25 10:44:31;;;;;;;22.83;4.53;;;11.20;99.90;;;;;;5052905;28;20240;-83
2022/11/25 10:47:14;;;;;;;20.03;4.17;;;11.20;99.90;;;;;;5053577;28;20290;-82
2022/11/25 10:49:51;;;;;;;12.83;2.80;;;11.30;99.90;;;;;;5052813;28;20457;-81
2022/11/25 10:52:22;;;;;;;17.77;3.30;;;11.40;99.90;;;;;;5053149;28;20300;-81
2022/11/25 10:54:56;;;;;;;14.33;3.10;;;11.50;99.90;;;;;;5052657;28;20620;-83
2022/11/25 10:57:27;;;;;;;16.83;2.97;;;11.50;99.90;;;;;;5053149;28;20226;-86
2022/11/25 10:59:56;;;;;;;16.50;3.37;;;11.60;99.90;;;;;;5053548;28;20261;-83
2022/11/25 11:02:28;;;;;;;15.10;2.90;;;11.70;99.90;;;;;;5053095;28;20586;-83
2022/11/25 11:04:58;;;;;;;17.50;3.00;;;11.90;99.90;;;;;;5053189;28;20781;-83
2022/11/25 11:07:28;;;;;;;21.50;4.13;;;12.00;99.90;;;;;;5063489;28;20280;-83
2022/11/25 11:10:12;;;;;;;12.67;3.23;;;12.10;99.90;;;;;;5071969;28;20201;-86
2022/11/25 11:12:51;;;;;;;11.73;3.10;;;12.10;99.90;;;;;;5069070;28;20216;-81
2022/11/25 11:15:21;;;;;;;15.83;2.90;;;12.20;99.90;;;;;;5053027;28;20218;-82
2022/11/25 11:17:50;;;;;;;12.50;2.87;;;12.10;99.90;;;;;;5055111;28;20194;-82
2022/11/25 11:20:21;;;;;;;14.03;3.87;;;12.10;99.90;;;;;;5059992;28;20212;-82
2022/11/25 11:22:55;;;;;;;14.13;3.20;;;12.20;99.90;;;;;;5056223;28;20187;-82
2022/11/25 11:25:27;;;;;;;18.13;4.43;;;12.20;99.90;;;;;;5076774;28;20205;-82
2022/11/25 11:27:54;;;;;;;14.50;3.00;;;12.30;99.90;;;;;;5056491;28;20342;-83
2022/11/25 11:30:23;;;;;;;13.23;2.90;;;12.30;99.90;;;;;;5056376;28;20206;-82
2022/11/25 11:33:01;;;;;;;16.47;3.20;;;12.20;99.90;;;;;;5056263;28;20271;-82
2022/11/25 11:35:39;;;;;;;12.30;3.57;;;12.20;99.90;;;;;;5056394;28;20324;-81
2022/11/25 11:38:21;;;;;;;17.00;3.20;;;12.20;99.90;;;;;;5061981;28;20204;-81
2022/11/25 11:40:52;;;;;;;10.30;2.90;;;12.20;99.90;;;;;;5075702;28;20198;-81
2022/11/25 11:43:34;;;;;;;17.93;3.20;;;12.20;99.90;;;;;;5074347;22;20227;-82
2022/11/25 11:46:15;;;;;;;15.07;3.87;;;12.20;99.90;;;;;;5032018;28;20203;-82
2022/11/25 11:48:55;;;;;;;11.50;3.10;;;12.20;99.90;;;;;;5016531;28;20227;-81
2022/11/25 11:51:30;;;;;;;15.43;3.73;;;12.20;99.90;;;;;;5016586;28;20212;-82
2022/11/25 11:54:05;;;;;;;13.50;3.77;;;12.20;99.90;;;;;;5016206;28;20584;-82
2022/11/25 11:56:39;;;;;;;23.67;5.30;;;12.10;99.90;;;;;;5017031;28;20473;-80
2022/11/25 11:59:36;;;;;;;17.23;4.77;;;12.10;99.90;;;;;;5016241;28;20192;-83
2022/11/25 12:02:19;;;;;;;17.27;4.30;;;12.20;99.90;;;;;;5016404;28;20253;-82
2022/11/25 12:05:01;;;;;;;17.27;4.50;;;12.10;99.90;;;;;;5016195;28;20281;-81
2022/11/25 12:07:34;;;;;;;17.33;3.60;;;12.10;99.90;;;;;;5015846;28;20195;-82
2022/11/25 12:10:08;;;;;;;13.43;3.37;;;12.10;99.90;;;;;;5051424;28;20336;-82
2022/11/25 12:12:38;;;;;;;17.23;3.67;;;12.10;99.90;;;;;;5032712;28;20498;-82
2022/11/25 12:15:12;;;;;;;19.77;3.73;;;12.10;99.90;;;;;;5029615;28;20186;-82
2022/11/25 12:17:45;;;;;;;14.77;3.40;;;12.00;99.90;;;;;;5047808;28;20213;-82
2022/11/25 12:20:22;;;;;;;14.70;3.70;;;12.00;99.90;;;;;;5023542;28;20199;-83
2022/11/25 12:28:16;;;;;;;15.17;3.87;;;12.00;99.90;;;;;;5016151;28;20226;-83
2022/11/25 12:30:58;;;;;;;14.63;3.60;;;12.00;99.90;;;;;;5015313;28;20198;-82
2022/11/25 12:33:30;;;;;;;13.57;3.37;;;12.00;99.90;;;;;;5034146;28;20298;-83
2022/11/25 12:36:03;;;;;;;15.93;2.97;;;12.00;99.90;;;;;;5035854;28;20195;-83
2022/11/25 12:38:37;;;;;;;12.47;3.20;;;12.10;99.90;;;;;;5036087;28;20289;-82
2022/11/25 12:41:14;;;;;;;19.87;3.40;;;12.10;99.90;;;;;;5036146;28;20194;-82
2022/11/25 12:43:45;;;;;;;16.57;3.53;;;12.20;99.90;;;;;;5033408;28;20732;-82
2022/11/25 12:46:21;;;;;;;18.70;3.90;;;12.20;99.90;;;;;;5035218;28;20187;-81
2022/11/25 12:48:48;;;;;;;11.43;3.10;;;12.20;99.90;;;;;;5032000;28;20232;-81
2022/11/25 12:51:27;;;;;;;13.70;3.17;;;12.20;99.90;;;;;;5014314;28;20223;-82
2022/11/25 12:54:05;;;;;;;14.07;3.17;;;12.20;99.90;;;;;;5015409;28;20196;-82
2022/11/25 12:56:46;;;;;;;13.27;3.13;;;12.20;99.90;;;;;;5020703;28;20294;-83
2022/11/25 12:59:35;;;;;;;11.27;3.10;;;12.30;99.90;;;;;;5017858;28;20215;-82
2022/11/25 13:02:32;;;;;;;14.43;3.83;;;12.30;99.90;;;;;;5014563;28;20188;-83
2022/11/25 13:05:20;;;;;;;14.43;3.47;;;12.30;99.90;;;;;;5014599;28;20206;-81
2022/11/25 13:07:56;;;;;;;18.87;3.33;;;12.40;99.90;;;;;;5016481;28;20207;-83
2022/11/25 13:10:39;;;;;;;14.43;3.10;;;12.50;99.90;;;;;;5015329;28;20191;-82
2022/11/25 13:13:32;;;;;;;15.97;3.80;;;12.50;99.90;;;;;;5014013;28;20643;-82
2022/11/25 13:16:01;;;;;;;19.43;3.97;;;12.50;99.90;;;;;;5015103;28;20600;-81
2022/11/25 13:18:32;;;;;;;19.43;4.33;;;12.50;99.90;;;;;;5014881;28;20207;-80
2022/11/25 13:21:06;;;;;;;15.10;4.00;;;12.40;99.90;;;;;;5024376;28;20203;-81